Ross Siding, Pennsylvania
Current Conditions -  °F | °C
As of 3:55 AM on Wednesday 22 Oct 2014 (Local Time) from KN38 Reporting Station
Drizzle Drizzle  
Wind Chill: 38°   Ceiling: 400
Heat Index: 45°   Visibility: 2mi
Dew Point: 45°   Wind: 14mph
Humidity: 100%   Direction: 360°N
Pressure: 30.01"   Gusts: NA
Location:  41.426°N, 77.4189°W
Report Text: KN38 220755Z AUTO 36012KT 2SM -DZ OVC004 07/07 A3001 RMK AO2
Loading
Personal Weather Stations






























Interactive Weather Map
Tropical Storm Tracking
New forecast layout! Learn more

10-Day Weather Forecast

Advertisements
Track Severe Weather on mobile